Swampers, Louisiana
Current Conditions -  °F | °C
As of 10:53 PM on Wednesday 26 Nov 2014 (Local Time) from KMLU Reporting Station
Clear Clear  
Wind Chill: 44°   Ceiling: Unl
Heat Index: 47°   Visibility: 10mi
Dew Point: 35°   Wind: 7mph
Humidity: 63%   Direction: 310°NW
Pressure: 30.29"   Gusts: NA
Location:  32.1434°N, 91.7026°W
Report Text: KMLU 270453Z AUTO 31006KT 10SM CLR 08/02 A3029 RMK AO2 SLP256 T00830017
Loading
Personal Weather Stations






























Interactive Weather Map New forecast layout! Learn more

10-Day Weather Forecast

Advertisements
Track Severe Weather on mobile